createdAt,value
2022-11-14T00:02:41.337Z,100629.50
2022-11-14T00:06:06.757Z,100624.15
2022-11-14T00:09:09.420Z,100620.77
2022-11-14T00:12:12.442Z,100623.23
2022-11-14T00:15:14.623Z,100623.82
2022-11-14T00:18:17.547Z,100620.87
2022-11-14T00:21:19.457Z,100618.65
2022-11-14T00:24:21.337Z,100621.88
2022-11-14T00:27:23.180Z,100624.56
2022-11-14T00:30:25.582Z,100623.48
2022-11-14T00:33:27.262Z,100618.90
2022-11-14T00:36:28.861Z,100615.81
2022-11-14T00:39:30.680Z,100613.41
2022-11-14T00:42:32.491Z,100613.23
2022-11-14T00:45:34.379Z,100612.59
2022-11-14T00:48:35.935Z,100607.95
2022-11-14T00:51:37.525Z,100603.19
2022-11-14T00:54:39.176Z,100601.58
2022-11-14T00:57:40.837Z,100599.13
2022-11-14T01:00:42.465Z,100598.19
2022-11-14T01:03:47.981Z,100594.65
2022-11-14T01:06:49.548Z,100597.67
2022-11-14T01:09:51.196Z,100597.39
2022-11-14T01:12:52.871Z,100591.89
2022-11-14T01:15:55.400Z,100584.15
2022-11-14T01:18:57.432Z,100584.35
2022-11-14T01:22:03.151Z,100585.98
2022-11-14T01:25:08.395Z,100590.34
2022-11-14T01:28:13.007Z,100595.36
2022-11-14T01:31:22.789Z,100595.78
2022-11-14T01:34:24.978Z,100594.21
2022-11-14T01:37:26.882Z,100595.21
2022-11-14T01:40:28.968Z,100591.63
2022-11-14T01:43:38.694Z,100590.15
2022-11-14T01:46:42.769Z,100588.77
2022-11-14T01:49:48.040Z,100586.52
2022-11-14T01:52:49.894Z,100578.61
2022-11-14T01:55:52.961Z,100575.23
2022-11-14T01:58:59.747Z,100578.83
2022-11-14T02:02:13.396Z,100572.45
2022-11-14T02:05:16.144Z,100573.48
2022-11-14T02:08:18.464Z,100567.94
2022-11-14T02:11:20.232Z,100567.77
2022-11-14T02:14:22.423Z,100567.05
2022-11-14T02:17:30.363Z,100565.69
2022-11-14T02:20:36.439Z,100570.48
2022-11-14T02:23:38.227Z,100569.42
2022-11-14T02:26:41.317Z,100566.48
2022-11-14T02:29:43.288Z,100558.27
2022-11-14T02:33:12.471Z,100561.21
2022-11-14T02:36:06.929Z,100558.44
2022-11-14T02:39:08.725Z,100559.05
2022-11-14T02:42:10.509Z,100556.10
2022-11-14T02:45:12.998Z,100557.28
2022-11-14T02:48:14.755Z,100552.73
2022-11-14T02:51:16.492Z,100549.67
2022-11-14T02:54:18.283Z,100543.51
2022-11-14T02:57:19.964Z,100534.16
2022-11-14T03:00:21.608Z,100533.95
2022-11-14T03:03:23.239Z,100532.83
2022-11-14T03:06:25.059Z,100530.41
2022-11-14T03:09:26.744Z,100527.79
2022-11-14T03:12:28.331Z,100530.20
2022-11-14T03:15:30.270Z,100528.84
2022-11-14T03:18:32.179Z,100524.66
2022-11-14T03:21:34.316Z,100519.09
2022-11-14T03:24:36.107Z,100512.61
2022-11-14T03:27:37.785Z,100516.95
2022-11-14T03:30:39.476Z,100518.90
2022-11-14T03:33:41.046Z,100517.58
2022-11-14T03:36:42.639Z,100517.82
2022-11-14T03:39:44.436Z,100518.60
2022-11-14T03:42:46.187Z,100514.61
2022-11-14T03:45:48.540Z,100510.52
2022-11-14T03:48:50.215Z,100512.58
2022-11-14T03:51:51.811Z,100509.46
2022-11-14T03:54:53.590Z,100510.98
2022-11-14T03:57:55.345Z,100513.13
2022-11-14T04:00:57.081Z,100512.31
2022-11-14T04:03:58.863Z,100514.55
2022-11-14T04:07:00.538Z,100512.08
2022-11-14T04:10:02.306Z,100508.67
2022-11-14T04:13:04.398Z,100501.73
2022-11-14T04:16:06.616Z,100498.13
2022-11-14T04:19:08.785Z,100496.53
2022-11-14T04:22:10.505Z,100495.73
2022-11-14T04:25:12.019Z,100496.39
2022-11-14T04:28:14.028Z,100501.98
2022-11-14T04:31:15.749Z,100499.70
2022-11-14T04:34:17.402Z,100498.98
2022-11-14T04:37:19.233Z,100497.65
2022-11-14T04:40:21.170Z,100498.45
2022-11-14T04:43:22.863Z,100488.45
2022-11-14T04:46:24.402Z,100482.11
2022-11-14T04:49:26.182Z,100478.89
2022-11-14T04:52:28.874Z,100480.05
2022-11-14T04:55:30.673Z,100481.77
2022-11-14T04:58:32.569Z,100479.60
2022-11-14T05:01:34.734Z,100479.38
2022-11-14T05:04:36.353Z,100483.46
2022-11-14T05:07:38.051Z,100483.66
2022-11-14T05:10:42.883Z,100484.46
2022-11-14T05:13:45.070Z,100484.69
2022-11-14T05:16:46.778Z,100489.77
2022-11-14T05:19:48.565Z,100485.38
2022-11-14T05:22:54.501Z,100482.76
2022-11-14T05:26:07.579Z,100479.09
2022-11-14T05:29:09.412Z,100478.59
2022-11-14T05:32:15.995Z,100474.80
2022-11-14T05:35:18.090Z,100478.27
2022-11-14T05:38:20.067Z,100484.16
2022-11-14T05:41:21.761Z,100491.91
2022-11-14T05:44:23.336Z,100487.45
2022-11-14T05:47:24.910Z,100488.44
2022-11-14T05:50:26.503Z,100489.23
2022-11-14T05:53:29.154Z,100482.24
2022-11-14T05:56:30.877Z,100475.14
2022-11-14T05:59:32.420Z,100478.20
2022-11-14T06:02:34.194Z,100475.52
2022-11-14T06:05:36.498Z,100472.39
2022-11-14T06:08:38.816Z,100470.43
2022-11-14T06:11:40.474Z,100468.97
2022-11-14T06:14:41.995Z,100470.64
2022-11-14T06:17:44.200Z,100474.05
2022-11-14T06:20:45.927Z,100475.47
2022-11-14T06:23:47.703Z,100482.98
2022-11-14T06:26:49.352Z,100488.30
2022-11-14T06:29:50.947Z,100491.33
2022-11-14T06:32:59.061Z,100489.70
2022-11-14T06:36:02.725Z,100492.54
2022-11-14T06:39:04.362Z,100495.03
2022-11-14T06:42:06.290Z,100488.30
2022-11-14T06:45:08.516Z,100488.77
2022-11-14T06:48:10.267Z,100487.07
2022-11-14T06:51:13.174Z,100486.33
2022-11-14T06:54:14.913Z,100486.38
2022-11-14T06:57:16.592Z,100490.42
2022-11-14T07:00:18.187Z,100486.27
2022-11-14T07:03:19.883Z,100479.21
2022-11-14T07:06:22.519Z,100475.04
2022-11-14T07:09:24.226Z,100476.04
2022-11-14T07:12:25.931Z,100473.88
2022-11-14T07:15:27.787Z,100473.11
2022-11-14T07:18:31.477Z,100472.26
2022-11-14T07:21:34.717Z,100473.66
2022-11-14T07:24:36.319Z,100475.45
2022-11-14T07:27:38.095Z,100474.52
2022-11-14T07:30:39.684Z,100461.49
2022-11-14T07:33:41.753Z,100464.86
2022-11-14T07:36:43.373Z,100462.15
2022-11-14T07:39:46.215Z,100457.86
2022-11-14T07:42:47.939Z,100456.55
2022-11-14T07:45:49.460Z,100455.86
2022-11-14T07:48:51.242Z,100453.94
2022-11-14T07:51:53.109Z,100445.48
2022-11-14T07:54:54.995Z,100450.66
2022-11-14T07:57:59.785Z,100450.34
2022-11-14T08:01:02.670Z,100451.86
2022-11-14T08:04:04.753Z,100452.62
2022-11-14T08:07:06.531Z,100455.09
2022-11-14T08:10:11.827Z,100458.03
2022-11-14T08:16:35.688Z,100460.56
2022-11-14T08:19:37.405Z,100457.48
2022-11-14T08:22:39.123Z,100453.27
2022-11-14T08:25:41.136Z,100454.06
2022-11-14T08:28:42.811Z,100452.09
2022-11-14T08:31:45.555Z,100449.77
2022-11-14T08:34:47.367Z,100437.63
2022-11-14T08:37:49.367Z,100436.03
2022-11-14T08:40:51.236Z,100427.91
2022-11-14T08:43:52.791Z,100426.81
2022-11-14T08:46:54.653Z,100428.98
2022-11-14T08:49:56.267Z,100429.70
2022-11-14T08:52:57.954Z,100432.70
2022-11-14T08:55:59.555Z,100429.00
2022-11-14T08:59:03.587Z,100426.10
2022-11-14T09:02:05.269Z,100425.73
2022-11-14T09:05:07.321Z,100430.09
2022-11-14T09:08:09.148Z,100429.86
2022-11-14T09:11:12.410Z,100427.81
2022-11-14T09:14:16.362Z,100426.29
2022-11-14T09:17:18.177Z,100427.30
2022-11-14T09:20:19.760Z,100423.64
2022-11-14T09:23:21.783Z,100430.33
2022-11-14T09:26:23.613Z,100423.81
2022-11-14T09:29:25.289Z,100422.89
2022-11-14T09:32:27.068Z,100421.99
2022-11-14T09:35:30.164Z,100415.52
2022-11-14T09:38:38.024Z,100409.43
2022-11-14T09:42:02.968Z,100407.31
2022-11-14T09:45:09.744Z,100403.75
2022-11-14T09:48:23.134Z,100399.65
2022-11-14T09:51:29.319Z,100398.44
2022-11-14T09:54:41.045Z,100393.64
2022-11-14T09:57:42.916Z,100391.70
2022-11-14T10:00:47.013Z,100392.16
2022-11-14T10:03:53.608Z,100389.44
2022-11-14T10:07:03.103Z,100381.95
2022-11-14T10:10:16.224Z,100374.44
2022-11-14T10:13:31.516Z,100372.78
2022-11-14T10:16:50.561Z,100375.33
2022-11-14T10:20:18.766Z,100376.73
2022-11-14T10:23:35.012Z,100370.79
2022-11-14T10:26:46.188Z,100368.27
2022-11-14T10:30:13.003Z,100361.67
2022-11-14T10:33:45.759Z,100360.43
2022-11-14T10:36:58.566Z,100352.42
2022-11-14T10:40:23.196Z,100352.33
2022-11-14T10:43:47.547Z,100347.85
2022-11-14T10:46:54.216Z,100339.39
2022-11-14T10:49:58.586Z,100335.86
2022-11-14T10:53:02.515Z,100333.33
2022-11-14T10:56:05.382Z,100330.44
2022-11-14T10:59:12.163Z,100324.16
2022-11-14T11:02:14.312Z,100321.28
2022-11-14T11:05:18.063Z,100321.36
2022-11-14T11:08:44.370Z,100323.84
2022-11-14T11:11:59.702Z,100314.96
2022-11-14T11:15:15.338Z,100313.33
2022-11-14T11:18:33.613Z,100314.50
2022-11-14T11:21:51.753Z,100316.78
2022-11-14T11:24:53.891Z,100312.19
2022-11-14T11:28:04.604Z,100309.77
2022-11-14T11:31:09.170Z,100304.25
2022-11-14T11:34:11.680Z,100301.42
2022-11-14T11:37:18.728Z,100301.02
2022-11-14T11:40:25.030Z,100296.17
2022-11-14T11:43:42.586Z,100293.91
2022-11-14T11:46:50.611Z,100289.14
2022-11-14T11:49:54.647Z,100281.09
2022-11-14T11:53:25.269Z,100278.00
2022-11-14T11:56:31.340Z,100278.36
2022-11-14T11:59:43.230Z,100280.90
2022-11-14T12:02:50.172Z,100282.40
2022-11-14T12:06:10.777Z,100281.89
2022-11-14T12:09:21.938Z,100277.29
2022-11-14T12:12:40.928Z,100270.34
2022-11-14T12:16:17.071Z,100267.03
2022-11-14T12:19:37.013Z,100261.63
2022-11-14T12:23:03.516Z,100263.66
2022-11-14T12:26:06.989Z,100258.86
2022-11-14T12:29:28.050Z,100254.86
2022-11-14T12:32:38.214Z,100254.15
2022-11-14T12:35:49.527Z,100249.84
2022-11-14T12:38:53.153Z,100243.77
2022-11-14T12:42:06.546Z,100248.45
2022-11-14T12:45:36.776Z,100252.94
2022-11-14T12:48:39.996Z,100250.27
2022-11-14T12:51:49.878Z,100251.69
2022-11-14T12:54:51.596Z,100249.02
2022-11-14T12:58:12.529Z,100242.65
2022-11-14T13:01:14.471Z,100239.80
2022-11-14T13:04:30.720Z,100235.98
2022-11-14T13:07:41.546Z,100232.70
2022-11-14T13:10:43.500Z,100231.88
2022-11-14T13:14:20.733Z,100231.06
2022-11-14T13:17:45.755Z,100224.17
2022-11-14T13:21:24.556Z,100223.44
2022-11-14T13:24:26.408Z,100226.52
2022-11-14T13:28:00.061Z,100227.90
2022-11-14T13:31:17.208Z,100218.42
2022-11-14T13:34:40.635Z,100208.98
2022-11-14T13:37:55.006Z,100211.21
2022-11-14T13:41:25.548Z,100206.15
2022-11-14T13:44:46.255Z,100210.29
2022-11-14T13:47:47.784Z,100202.35
2022-11-14T13:50:53.374Z,100203.22
2022-11-14T13:53:55.066Z,100200.06
2022-11-14T13:57:15.567Z,100200.32
2022-11-14T14:00:20.668Z,100193.91
2022-11-14T14:03:46.037Z,100188.77
2022-11-14T14:07:07.023Z,100183.41
2022-11-14T14:10:32.749Z,100177.38
2022-11-14T14:13:53.970Z,100182.33
2022-11-14T14:17:02.296Z,100180.85
2022-11-14T14:20:20.335Z,100180.52
2022-11-14T14:24:04.746Z,100177.12
2022-11-14T14:27:35.960Z,100170.73
2022-11-14T14:30:37.728Z,100164.24
2022-11-14T14:33:46.231Z,100163.91
2022-11-14T14:36:53.577Z,100161.84
2022-11-14T14:40:00.607Z,100155.52
2022-11-14T14:43:05.649Z,100150.91
2022-11-14T14:46:07.384Z,100145.52
2022-11-14T14:49:09.631Z,100146.94
2022-11-14T14:52:31.901Z,100146.81
2022-11-14T14:55:35.162Z,100141.43
2022-11-14T14:58:38.570Z,100141.96
2022-11-14T15:01:40.294Z,100141.61
2022-11-14T15:04:42.031Z,100141.04
2022-11-14T15:07:43.674Z,100143.02
2022-11-14T15:10:45.964Z,100141.77
2022-11-14T15:13:52.537Z,100140.48
2022-11-14T15:16:56.060Z,100140.25
2022-11-14T15:19:57.840Z,100139.73
2022-11-14T15:23:20.407Z,100139.19
2022-11-14T15:26:22.014Z,100136.20
2022-11-14T15:29:27.532Z,100136.73
2022-11-14T15:32:29.217Z,100135.57
2022-11-14T15:35:33.894Z,100138.19
2022-11-14T15:38:53.803Z,100137.89
2022-11-14T15:42:35.136Z,100134.02
2022-11-14T15:45:40.715Z,100128.64
2022-11-14T15:48:42.593Z,100128.42
2022-11-14T15:51:54.822Z,100124.03
2022-11-14T15:54:56.588Z,100126.71
2022-11-14T15:58:26.098Z,100127.80
2022-11-14T16:01:22.835Z,100121.73
2022-11-14T16:04:33.078Z,100121.55
2022-11-14T16:07:35.088Z,100121.70
2022-11-14T16:10:36.878Z,100122.27
2022-11-14T16:13:38.591Z,100125.54
2022-11-14T16:16:41.484Z,100129.11
2022-11-14T16:19:43.481Z,100129.41
2022-11-14T16:22:47.095Z,100120.95
2022-11-14T16:25:49.168Z,100117.02
2022-11-14T16:28:51.060Z,100113.77
2022-11-14T16:31:52.786Z,100112.77
2022-11-14T16:34:54.521Z,100115.34
2022-11-14T16:37:56.508Z,100113.86
2022-11-14T16:41:00.452Z,100112.17
2022-11-14T16:44:02.301Z,100110.49
2022-11-14T16:47:04.008Z,100108.91
2022-11-14T16:50:06.247Z,100106.83
2022-11-14T16:53:08.093Z,100111.11
2022-11-14T16:56:13.030Z,100107.73
2022-11-14T16:59:14.855Z,100109.75
2022-11-14T17:02:16.934Z,100114.33
2022-11-14T17:05:18.821Z,100115.86
2022-11-14T17:08:20.531Z,100106.09
2022-11-14T17:11:23.989Z,100107.73
2022-11-14T17:14:25.691Z,100103.77
2022-11-14T17:17:27.623Z,100100.59
2022-11-14T17:20:29.380Z,100098.83
2022-11-14T17:23:31.137Z,100097.17
2022-11-14T17:26:32.825Z,100093.59
2022-11-14T17:29:35.068Z,100093.79
2022-11-14T17:32:36.767Z,100092.67
2022-11-14T17:35:38.548Z,100095.34
2022-11-14T17:38:40.311Z,100097.38
2022-11-14T17:41:41.953Z,100102.02
2022-11-14T17:44:43.466Z,100097.93
2022-11-14T17:47:45.340Z,100093.89
2022-11-14T17:50:46.912Z,100092.74
2022-11-14T17:53:48.551Z,100093.34
2022-11-14T17:56:54.804Z,100095.95
2022-11-14T17:59:56.996Z,100086.80
2022-11-14T18:02:58.490Z,100084.36
2022-11-14T18:06:10.468Z,100085.46
2022-11-14T18:09:14.340Z,100081.51
2022-11-14T18:12:16.421Z,100082.92
2022-11-14T18:15:18.004Z,100077.73
2022-11-14T18:18:20.324Z,100073.24
2022-11-14T18:21:24.034Z,100072.84
2022-11-14T18:24:25.874Z,100068.29
2022-11-14T18:27:28.104Z,100059.96
2022-11-14T18:30:41.527Z,100058.39
2022-11-14T18:33:43.902Z,100056.08
2022-11-14T18:36:45.584Z,100049.88
2022-11-14T18:39:47.245Z,100047.30
2022-11-14T18:42:49.035Z,100045.55
2022-11-14T18:45:51.164Z,100050.38
2022-11-14T18:48:55.829Z,100050.58
2022-11-14T18:51:57.693Z,100047.77
2022-11-14T18:54:59.416Z,100046.95
2022-11-14T18:58:01.099Z,100046.45
2022-11-14T19:01:08.933Z,100040.09
2022-11-14T19:04:11.733Z,100036.83
2022-11-14T19:07:15.108Z,100041.56
2022-11-14T19:10:16.889Z,100042.05
2022-11-14T19:13:18.523Z,100042.64
2022-11-14T19:16:20.062Z,100038.40
2022-11-14T19:19:21.949Z,100037.14
2022-11-14T19:22:23.770Z,100040.24
2022-11-14T19:25:25.443Z,100033.30
2022-11-14T19:28:29.741Z,100028.61
2022-11-14T19:31:32.561Z,100026.77
2022-11-14T19:34:34.303Z,100028.58
2022-11-14T19:37:36.209Z,100030.54
2022-11-14T19:40:37.952Z,100029.26
2022-11-14T19:43:40.168Z,100030.11
2022-11-14T19:46:47.068Z,100027.85
2022-11-14T19:49:50.915Z,100028.66
2022-11-14T19:52:52.776Z,100027.83
2022-11-14T19:56:06.364Z,100023.78
2022-11-14T19:59:14.009Z,100023.98
2022-11-14T20:02:16.995Z,100023.05
2022-11-14T20:05:18.655Z,100022.25
2022-11-14T20:08:20.907Z,100018.03
2022-11-14T20:11:23.797Z,100017.98
2022-11-14T20:14:25.507Z,100015.29
2022-11-14T20:17:27.113Z,100007.20
2022-11-14T20:20:28.782Z,99999.77
2022-11-14T20:23:30.738Z,99997.31
2022-11-14T20:26:32.755Z,99996.64
2022-11-14T20:29:35.190Z,99993.81
2022-11-14T20:32:37.013Z,99986.73
2022-11-14T20:35:38.604Z,99982.25
2022-11-14T20:38:40.336Z,99979.23
2022-11-14T20:41:41.861Z,99975.98
2022-11-14T20:44:43.533Z,99977.75
2022-11-14T20:47:45.124Z,99975.48
2022-11-14T20:50:47.047Z,99975.38
2022-11-14T20:53:49.975Z,99968.64
2022-11-14T20:56:51.945Z,99967.16
2022-11-14T20:59:53.593Z,99960.56
2022-11-14T21:02:55.226Z,99959.29
2022-11-14T21:05:57.957Z,99959.01
2022-11-14T21:08:59.753Z,99953.02
2022-11-14T21:12:01.323Z,99950.97
2022-11-14T21:15:03.034Z,99948.18
2022-11-14T21:18:04.803Z,99943.77
2022-11-14T21:21:09.897Z,99939.31
2022-11-14T21:24:11.469Z,99935.14
2022-11-14T21:27:13.235Z,99933.22
2022-11-14T21:30:14.880Z,99930.02
2022-11-14T21:33:16.516Z,99933.40
2022-11-14T21:39:40.832Z,99927.24
2022-11-14T21:42:42.998Z,99924.17
2022-11-14T21:45:53.718Z,99926.92
2022-11-14T21:48:56.162Z,99926.80
2022-11-14T21:51:57.861Z,99923.58
2022-11-14T21:54:59.586Z,99924.48
2022-11-14T21:58:01.389Z,99922.09
2022-11-14T22:01:08.518Z,99919.85
2022-11-14T22:04:13.262Z,99918.48
2022-11-14T22:07:14.896Z,99914.61
2022-11-14T22:10:16.510Z,99914.98
2022-11-14T22:13:18.657Z,99917.74
2022-11-14T22:16:20.964Z,99918.16
2022-11-14T22:19:23.569Z,99915.73
2022-11-14T22:22:25.243Z,99915.69
2022-11-14T22:25:28.514Z,99913.12
2022-11-14T22:28:30.630Z,99908.23
2022-11-14T22:31:32.371Z,99903.51
2022-11-14T22:34:34.026Z,99897.69
2022-11-14T22:37:35.586Z,99895.67
2022-11-14T22:40:38.384Z,99893.99
2022-11-14T22:43:40.160Z,99896.92
2022-11-14T22:46:42.013Z,99899.83
2022-11-14T22:49:43.723Z,99898.46
2022-11-14T22:52:45.477Z,99898.61
2022-11-14T22:55:48.511Z,99896.36
2022-11-14T22:58:50.627Z,99891.98
2022-11-14T23:01:52.267Z,99890.93
2022-11-14T23:04:53.992Z,99890.59
2022-11-14T23:07:55.998Z,99885.09
2022-11-14T23:11:02.246Z,99886.16
2022-11-14T23:14:04.127Z,99881.32
2022-11-14T23:17:05.883Z,99877.70
2022-11-14T23:20:13.553Z,99877.03
2022-11-14T23:23:18.229Z,99876.22
2022-11-14T23:26:20.135Z,99871.23
2022-11-14T23:29:21.802Z,99870.65
2022-11-14T23:32:23.635Z,99864.13
2022-11-14T23:35:25.548Z,99857.11
2022-11-14T23:38:27.312Z,99860.09
2022-11-14T23:41:48.920Z,99855.13
2022-11-14T23:44:50.543Z,99852.73
2022-11-14T23:47:52.560Z,99849.77
2022-11-14T23:50:55.649Z,99848.89
2022-11-14T23:53:57.371Z,99845.17
2022-11-14T23:57:04.106Z,99847.46
